sensor_id;sensor_type;location;lat;lon;timestamp;pressure;altitude;pressure_sealevel;temperature;humidity
76054;BME280;64752;48.870;9.082;2022-11-13T00:01:21;99168.00;;;2.83;96.67
76054;BME280;64752;48.870;9.082;2022-11-13T00:03:47;99167.25;;;2.92;96.89
76054;BME280;64752;48.870;9.082;2022-11-13T00:06:13;99166.34;;;2.87;96.90
76054;BME280;64752;48.870;9.082;2022-11-13T00:08:39;99162.88;;;2.82;96.85
76054;BME280;64752;48.870;9.082;2022-11-13T00:11:17;99164.56;;;2.83;96.96
76054;BME280;64752;48.870;9.082;2022-11-13T00:13:43;99159.34;;;2.75;96.79
76054;BME280;64752;48.870;9.082;2022-11-13T00:16:12;99156.59;;;2.61;96.92
76054;BME280;64752;48.870;9.082;2022-11-13T00:18:38;99150.34;;;2.45;96.89
76054;BME280;64752;48.870;9.082;2022-11-13T00:21:15;99150.25;;;2.41;96.88
76054;BME280;64752;48.870;9.082;2022-11-13T00:23:41;99143.50;;;2.43;96.90
76054;BME280;64752;48.870;9.082;2022-11-13T00:26:09;99148.50;;;2.37;96.97
76054;BME280;64752;48.870;9.082;2022-11-13T00:28:35;99150.16;;;2.33;97.07
76054;BME280;64752;48.870;9.082;2022-11-13T00:31:01;99138.84;;;2.20;96.84
76054;BME280;64752;48.870;9.082;2022-11-13T00:33:27;99153.25;;;2.14;96.98
76054;BME280;64752;48.870;9.082;2022-11-13T00:35:53;99143.78;;;2.09;96.95
76054;BME280;64752;48.870;9.082;2022-11-13T00:38:18;99147.09;;;2.04;97.21
76054;BME280;64752;48.870;9.082;2022-11-13T00:40:44;99135.28;;;2.10;96.97
76054;BME280;64752;48.870;9.082;2022-11-13T00:43:09;99127.50;;;2.06;96.99
76054;BME280;64752;48.870;9.082;2022-11-13T00:45:34;99128.44;;;2.08;96.97
76054;BME280;64752;48.870;9.082;2022-11-13T00:48:00;99126.63;;;2.02;96.81
76054;BME280;64752;48.870;9.082;2022-11-13T00:50:25;99126.19;;;2.28;96.93
76054;BME280;64752;48.870;9.082;2022-11-13T00:52:51;99113.38;;;2.26;96.99
76054;BME280;64752;48.870;9.082;2022-11-13T00:55:16;99119.28;;;2.24;96.86
76054;BME280;64752;48.870;9.082;2022-11-13T00:57:41;99116.63;;;2.18;97.14
76054;BME280;64752;48.870;9.082;2022-11-13T01:00:07;99108.88;;;2.13;96.95
76054;BME280;64752;48.870;9.082;2022-11-13T01:02:34;99106.44;;;2.19;97.03
76054;BME280;64752;48.870;9.082;2022-11-13T01:04:59;99103.78;;;2.15;97.24
76054;BME280;64752;48.870;9.082;2022-11-13T01:07:24;99106.28;;;2.10;97.02
76054;BME280;64752;48.870;9.082;2022-11-13T01:09:50;99105.28;;;2.02;97.26
76054;BME280;64752;48.870;9.082;2022-11-13T01:12:15;99114.63;;;2.00;97.12
76054;BME280;64752;48.870;9.082;2022-11-13T01:14:41;99105.25;;;1.99;97.23
76054;BME280;64752;48.870;9.082;2022-11-13T01:17:06;99113.81;;;2.01;96.81
76054;BME280;64752;48.870;9.082;2022-11-13T01:19:32;99114.66;;;2.01;96.96
76054;BME280;64752;48.870;9.082;2022-11-13T01:21:57;99108.81;;;2.08;96.69
76054;BME280;64752;48.870;9.082;2022-11-13T01:24:22;99103.72;;;2.10;97.08
76054;BME280;64752;48.870;9.082;2022-11-13T01:26:48;99095.28;;;2.16;97.11
76054;BME280;64752;48.870;9.082;2022-11-13T01:29:13;99091.09;;;2.22;97.12
76054;BME280;64752;48.870;9.082;2022-11-13T01:31:39;99091.88;;;2.15;97.25
76054;BME280;64752;48.870;9.082;2022-11-13T01:34:04;99085.78;;;2.08;97.35
76054;BME280;64752;48.870;9.082;2022-11-13T01:36:29;99084.16;;;2.12;96.76
76054;BME280;64752;48.870;9.082;2022-11-13T01:38:56;99083.13;;;2.02;97.04
76054;BME280;64752;48.870;9.082;2022-11-13T01:41:32;99079.66;;;2.00;97.11
76054;BME280;64752;48.870;9.082;2022-11-13T01:43:59;99079.63;;;1.97;97.21
76054;BME280;64752;48.870;9.082;2022-11-13T01:46:34;99078.00;;;2.01;97.11
76054;BME280;64752;48.870;9.082;2022-11-13T01:51:50;99066.25;;;1.63;96.92
76054;BME280;64752;48.870;9.082;2022-11-13T01:54:20;99066.88;;;1.50;97.12
76054;BME280;64752;48.870;9.082;2022-11-13T01:56:46;99067.63;;;1.44;97.00
76054;BME280;64752;48.870;9.082;2022-11-13T01:59:18;99058.44;;;1.56;97.06
76054;BME280;64752;48.870;9.082;2022-11-13T02:01:45;99059.16;;;1.48;97.00
76054;BME280;64752;48.870;9.082;2022-11-13T02:04:11;99060.63;;;1.35;97.22
76054;BME280;64752;48.870;9.082;2022-11-13T02:06:43;99057.97;;;1.29;97.14
76054;BME280;64752;48.870;9.082;2022-11-13T02:09:10;99050.97;;;1.19;97.08
76054;BME280;64752;48.870;9.082;2022-11-13T02:11:36;99045.78;;;1.14;97.30
76054;BME280;64752;48.870;9.082;2022-11-13T02:14:03;99045.66;;;1.10;97.10
76054;BME280;64752;48.870;9.082;2022-11-13T02:16:31;99043.56;;;0.89;97.29
76054;BME280;64752;48.870;9.082;2022-11-13T02:18:59;99041.75;;;0.83;97.26
76054;BME280;64752;48.870;9.082;2022-11-13T02:21:37;99043.59;;;0.90;97.35
76054;BME280;64752;48.870;9.082;2022-11-13T02:26:40;99028.25;;;0.89;97.31
76054;BME280;64752;48.870;9.082;2022-11-13T02:29:06;99025.19;;;1.08;97.30
76054;BME280;64752;48.870;9.082;2022-11-13T02:31:32;99027.91;;;1.14;97.25
76054;BME280;64752;48.870;9.082;2022-11-13T02:34:00;99026.38;;;1.24;97.11
76054;BME280;64752;48.870;9.082;2022-11-13T02:36:27;99021.28;;;1.26;97.28
76054;BME280;64752;48.870;9.082;2022-11-13T02:38:55;99015.22;;;1.21;97.19
76054;BME280;64752;48.870;9.082;2022-11-13T02:41:22;99018.47;;;1.12;97.09
76054;BME280;64752;48.870;9.082;2022-11-13T02:43:47;99013.50;;;1.18;97.13
76054;BME280;64752;48.870;9.082;2022-11-13T02:46:13;99009.22;;;1.19;97.20
76054;BME280;64752;48.870;9.082;2022-11-13T02:48:38;99010.97;;;1.20;97.19
76054;BME280;64752;48.870;9.082;2022-11-13T02:51:03;99008.41;;;1.20;97.18
76054;BME280;64752;48.870;9.082;2022-11-13T02:53:29;99016.06;;;1.20;97.31
76054;BME280;64752;48.870;9.082;2022-11-13T02:55:54;99006.50;;;1.09;97.31
76054;BME280;64752;48.870;9.082;2022-11-13T02:58:20;99006.47;;;1.08;97.23
76054;BME280;64752;48.870;9.082;2022-11-13T03:00:45;99011.72;;;1.15;97.31
76054;BME280;64752;48.870;9.082;2022-11-13T03:03:10;99014.41;;;1.22;97.23
76054;BME280;64752;48.870;9.082;2022-11-13T03:05:36;99008.38;;;1.18;97.19
76054;BME280;64752;48.870;9.082;2022-11-13T03:08:01;99007.88;;;1.36;97.39
76054;BME280;64752;48.870;9.082;2022-11-13T03:10:26;99002.63;;;1.30;97.23
76054;BME280;64752;48.870;9.082;2022-11-13T03:12:52;98999.19;;;1.28;97.22
76054;BME280;64752;48.870;9.082;2022-11-13T03:15:17;98990.50;;;1.18;97.36
76054;BME280;64752;48.870;9.082;2022-11-13T03:17:42;98997.28;;;1.16;97.06
76054;BME280;64752;48.870;9.082;2022-11-13T03:20:08;98995.72;;;1.24;97.17
76054;BME280;64752;48.870;9.082;2022-11-13T03:22:34;98997.38;;;1.22;97.21
76054;BME280;64752;48.870;9.082;2022-11-13T03:24:59;98995.69;;;1.23;97.24
76054;BME280;64752;48.870;9.082;2022-11-13T03:27:24;98994.84;;;1.24;97.19
76054;BME280;64752;48.870;9.082;2022-11-13T03:29:50;98998.41;;;1.32;97.19
76054;BME280;64752;48.870;9.082;2022-11-13T03:32:15;99000.22;;;1.39;97.40
76054;BME280;64752;48.870;9.082;2022-11-13T03:34:41;98996.94;;;1.46;97.29
76054;BME280;64752;48.870;9.082;2022-11-13T03:37:06;98998.66;;;1.46;97.16
76054;BME280;64752;48.870;9.082;2022-11-13T03:39:31;98992.53;;;1.38;97.54
76054;BME280;64752;48.870;9.082;2022-11-13T03:41:57;98998.03;;;1.59;97.22
76054;BME280;64752;48.870;9.082;2022-11-13T03:44:22;98996.84;;;1.40;97.42
76054;BME280;64752;48.870;9.082;2022-11-13T03:46:47;98999.44;;;1.42;97.28
76054;BME280;64752;48.870;9.082;2022-11-13T03:49:13;98998.56;;;1.41;97.28
76054;BME280;64752;48.870;9.082;2022-11-13T03:51:38;98989.94;;;1.34;97.28
76054;BME280;64752;48.870;9.082;2022-11-13T03:54:03;98995.88;;;1.33;97.35
76054;BME280;64752;48.870;9.082;2022-11-13T03:56:28;98989.97;;;1.38;97.29
76054;BME280;64752;48.870;9.082;2022-11-13T03:58:54;98985.69;;;1.35;97.11
76054;BME280;64752;48.870;9.082;2022-11-13T04:01:19;98981.41;;;1.32;97.29
76054;BME280;64752;48.870;9.082;2022-11-13T04:03:44;98988.44;;;1.46;97.22
76054;BME280;64752;48.870;9.082;2022-11-13T04:06:10;98979.75;;;1.36;97.16
76054;BME280;64752;48.870;9.082;2022-11-13T04:08:35;98980.78;;;1.46;97.05
76054;BME280;64752;48.870;9.082;2022-11-13T04:11:05;98983.25;;;1.43;97.36
76054;BME280;64752;48.870;9.082;2022-11-13T04:13:31;98980.66;;;1.38;97.31
76054;BME280;64752;48.870;9.082;2022-11-13T04:15:56;98977.97;;;1.32;97.39
76054;BME280;64752;48.870;9.082;2022-11-13T04:18:22;98976.78;;;1.63;97.23
76054;BME280;64752;48.870;9.082;2022-11-13T04:20:47;98975.63;;;1.44;97.26
76054;BME280;64752;48.870;9.082;2022-11-13T04:23:12;98977.75;;;1.20;97.16
76054;BME280;64752;48.870;9.082;2022-11-13T04:25:40;98966.63;;;1.16;97.42
76054;BME280;64752;48.870;9.082;2022-11-13T04:28:05;98959.28;;;1.34;97.21
76054;BME280;64752;48.870;9.082;2022-11-13T04:30:30;98966.75;;;1.24;97.32
76054;BME280;64752;48.870;9.082;2022-11-13T04:32:56;98959.59;;;1.04;97.33
76054;BME280;64752;48.870;9.082;2022-11-13T04:35:21;98964.34;;;0.86;97.40
76054;BME280;64752;48.870;9.082;2022-11-13T04:37:46;98960.19;;;0.91;97.27
76054;BME280;64752;48.870;9.082;2022-11-13T04:40:12;98956.91;;;0.96;97.29
76054;BME280;64752;48.870;9.082;2022-11-13T04:42:37;98953.28;;;0.85;96.97
76054;BME280;64752;48.870;9.082;2022-11-13T04:45:17;98947.09;;;0.72;97.36
76054;BME280;64752;48.870;9.082;2022-11-13T04:47:43;98947.28;;;0.83;97.26
76054;BME280;64752;48.870;9.082;2022-11-13T04:50:09;98944.59;;;0.75;97.27
76054;BME280;64752;48.870;9.082;2022-11-13T04:52:34;98942.56;;;0.61;97.23
76054;BME280;64752;48.870;9.082;2022-11-13T04:55:00;98939.53;;;0.79;97.27
76054;BME280;64752;48.870;9.082;2022-11-13T04:57:25;98944.78;;;0.85;97.24
76054;BME280;64752;48.870;9.082;2022-11-13T04:59:51;98945.31;;;0.68;97.40
76054;BME280;64752;48.870;9.082;2022-11-13T05:02:16;98939.31;;;0.68;97.40
76054;BME280;64752;48.870;9.082;2022-11-13T05:04:42;98939.19;;;0.60;97.39
76054;BME280;64752;48.870;9.082;2022-11-13T05:07:07;98939.88;;;0.53;97.43
76054;BME280;64752;48.870;9.082;2022-11-13T05:09:32;98934.81;;;0.54;97.44
76054;BME280;64752;48.870;9.082;2022-11-13T05:12:00;98935.56;;;0.49;97.30
76054;BME280;64752;48.870;9.082;2022-11-13T05:14:25;98932.03;;;0.44;97.27
76054;BME280;64752;48.870;9.082;2022-11-13T05:16:50;98929.50;;;0.44;97.32
76054;BME280;64752;48.870;9.082;2022-11-13T05:19:16;98926.13;;;0.45;97.34
76054;BME280;64752;48.870;9.082;2022-11-13T05:21:42;98928.00;;;0.53;97.73
76054;BME280;64752;48.870;9.082;2022-11-13T05:24:10;98933.03;;;0.50;97.27
76054;BME280;64752;48.870;9.082;2022-11-13T05:26:38;98922.94;;;0.56;97.39
76054;BME280;64752;48.870;9.082;2022-11-13T05:29:03;98923.75;;;0.54;97.57
76054;BME280;64752;48.870;9.082;2022-11-13T05:31:29;98921.13;;;0.51;97.22
76054;BME280;64752;48.870;9.082;2022-11-13T05:33:54;98929.84;;;0.62;97.59
76054;BME280;64752;48.870;9.082;2022-11-13T05:36:20;98913.78;;;0.66;97.72
76054;BME280;64752;48.870;9.082;2022-11-13T05:38:46;98916.41;;;0.71;97.27
76054;BME280;64752;48.870;9.082;2022-11-13T05:41:17;98916.50;;;0.74;97.52
76054;BME280;64752;48.870;9.082;2022-11-13T05:43:43;98918.50;;;0.90;97.21
76054;BME280;64752;48.870;9.082;2022-11-13T05:46:14;98908.75;;;0.71;97.50
76054;BME280;64752;48.870;9.082;2022-11-13T05:48:41;98911.59;;;0.85;97.43
76054;BME280;64752;48.870;9.082;2022-11-13T05:51:11;98914.88;;;0.79;97.43
76054;BME280;64752;48.870;9.082;2022-11-13T05:53:38;98904.69;;;0.79;97.55
76054;BME280;64752;48.870;9.082;2022-11-13T05:56:13;98913.28;;;0.86;97.39
76054;BME280;64752;48.870;9.082;2022-11-13T05:58:42;98916.81;;;0.92;97.25
76054;BME280;64752;48.870;9.082;2022-11-13T06:01:14;98903.22;;;0.93;97.41
76054;BME280;64752;48.870;9.082;2022-11-13T06:03:41;98904.38;;;1.11;97.32
76054;BME280;64752;48.870;9.082;2022-11-13T06:06:09;98902.47;;;0.99;97.38
76054;BME280;64752;48.870;9.082;2022-11-13T06:08:35;98893.94;;;0.99;97.24
76054;BME280;64752;48.870;9.082;2022-11-13T06:11:04;98899.16;;;1.05;97.38
76054;BME280;64752;48.870;9.082;2022-11-13T06:13:29;98900.34;;;1.24;97.36
76054;BME280;64752;48.870;9.082;2022-11-13T06:16:03;98897.81;;;1.25;97.55
76054;BME280;64752;48.870;9.082;2022-11-13T06:18:29;98902.97;;;1.28;97.39
76054;BME280;64752;48.870;9.082;2022-11-13T06:20:54;98897.09;;;1.34;97.53
76054;BME280;64752;48.870;9.082;2022-11-13T06:23:20;98893.81;;;1.43;97.41
76054;BME280;64752;48.870;9.082;2022-11-13T06:25:48;98898.22;;;1.51;97.32
76054;BME280;64752;48.870;9.082;2022-11-13T06:28:13;98902.47;;;1.49;97.32
76054;BME280;64752;48.870;9.082;2022-11-13T06:30:38;98894.06;;;1.60;97.53
76054;BME280;64752;48.870;9.082;2022-11-13T06:33:03;98895.53;;;1.42;97.47
76054;BME280;64752;48.870;9.082;2022-11-13T06:35:29;98897.75;;;1.77;97.54
76054;BME280;64752;48.870;9.082;2022-11-13T06:37:54;98894.34;;;1.78;97.35
76054;BME280;64752;48.870;9.082;2022-11-13T06:40:20;98889.16;;;1.72;97.06
76054;BME280;64752;48.870;9.082;2022-11-13T06:42:46;98887.53;;;1.77;97.53
76054;BME280;64752;48.870;9.082;2022-11-13T06:45:11;98881.50;;;1.73;97.39
76054;BME280;64752;48.870;9.082;2022-11-13T06:47:36;98874.94;;;1.92;97.38
76054;BME280;64752;48.870;9.082;2022-11-13T06:50:02;98874.84;;;1.85;97.51
76054;BME280;64752;48.870;9.082;2022-11-13T06:52:28;98870.66;;;1.90;97.39
76054;BME280;64752;48.870;9.082;2022-11-13T06:54:53;98871.44;;;1.84;97.34
76054;BME280;64752;48.870;9.082;2022-11-13T06:57:18;98868.84;;;1.81;97.18
76054;BME280;64752;48.870;9.082;2022-11-13T06:59:44;98868.09;;;1.88;97.48
76054;BME280;64752;48.870;9.082;2022-11-13T07:02:10;98866.28;;;1.81;97.61
76054;BME280;64752;48.870;9.082;2022-11-13T07:04:36;98866.19;;;1.75;97.46
76054;BME280;64752;48.870;9.082;2022-11-13T07:07:02;98862.13;;;1.91;97.27
76054;BME280;64752;48.870;9.082;2022-11-13T07:09:28;98862.34;;;2.06;97.42
76054;BME280;64752;48.870;9.082;2022-11-13T07:11:54;98853.72;;;1.98;97.24
76054;BME280;64752;48.870;9.082;2022-11-13T07:14:19;98856.53;;;2.18;97.42
76054;BME280;64752;48.870;9.082;2022-11-13T07:16:45;98854.13;;;2.30;97.32
76054;BME280;64752;48.870;9.082;2022-11-13T07:19:10;98850.56;;;2.19;97.33
76054;BME280;64752;48.870;9.082;2022-11-13T07:21:35;98855.72;;;2.22;97.43
76054;BME280;64752;48.870;9.082;2022-11-13T07:24:01;98854.38;;;1.83;97.13
76054;BME280;64752;48.870;9.082;2022-11-13T07:26:26;98849.81;;;2.29;97.23
76054;BME280;64752;48.870;9.082;2022-11-13T07:28:52;98852.44;;;2.33;97.09
76054;BME280;64752;48.870;9.082;2022-11-13T07:31:17;98847.03;;;2.09;96.68
76054;BME280;64752;48.870;9.082;2022-11-13T07:33:43;98848.81;;;2.14;97.34
76054;BME280;64752;48.870;9.082;2022-11-13T07:36:09;98853.06;;;2.15;97.19
76054;BME280;64752;48.870;9.082;2022-11-13T07:38:35;98844.16;;;2.57;97.07
76054;BME280;64752;48.870;9.082;2022-11-13T07:41:00;98846.66;;;2.49;96.92
76054;BME280;64752;48.870;9.082;2022-11-13T07:43:26;98836.25;;;2.34;96.80
76054;BME280;64752;48.870;9.082;2022-11-13T07:46:01;98830.47;;;2.50;97.00
76054;BME280;64752;48.870;9.082;2022-11-13T07:48:27;98821.94;;;2.53;96.86
76054;BME280;64752;48.870;9.082;2022-11-13T07:51:04;98819.50;;;2.66;96.64
76054;BME280;64752;48.870;9.082;2022-11-13T07:53:30;98814.28;;;2.57;96.68
76054;BME280;64752;48.870;9.082;2022-11-13T07:55:59;98813.53;;;2.66;96.49
76054;BME280;64752;48.870;9.082;2022-11-13T07:58:28;98815.13;;;2.53;96.14
76054;BME280;64752;48.870;9.082;2022-11-13T08:01:04;98811.91;;;2.73;96.29
76054;BME280;64752;48.870;9.082;2022-11-13T08:03:40;98811.66;;;2.49;96.36
76054;BME280;64752;48.870;9.082;2022-11-13T08:09:11;98811.97;;;2.82;96.60
76054;BME280;64752;48.870;9.082;2022-11-13T08:11:39;98807.19;;;3.23;96.55
76054;BME280;64752;48.870;9.082;2022-11-13T08:14:10;98812.00;;;2.83;97.20
76054;BME280;64752;48.870;9.082;2022-11-13T08:16:46;98809.53;;;2.96;97.62
76054;BME280;64752;48.870;9.082;2022-11-13T08:19:25;98815.69;;;3.15;97.52
76054;BME280;64752;48.870;9.082;2022-11-13T08:21:54;98809.81;;;3.34;97.55
76054;BME280;64752;48.870;9.082;2022-11-13T08:24:19;98821.00;;;3.47;97.54
76054;BME280;64752;48.870;9.082;2022-11-13T08:26:44;98801.41;;;3.58;97.58
76054;BME280;64752;48.870;9.082;2022-11-13T08:29:10;98804.66;;;3.26;96.70
76054;BME280;64752;48.870;9.082;2022-11-13T08:31:35;98797.56;;;2.95;97.03
76054;BME280;64752;48.870;9.082;2022-11-13T08:34:00;98803.59;;;3.00;96.97
76054;BME280;64752;48.870;9.082;2022-11-13T08:36:26;98793.50;;;3.20;97.23
76054;BME280;64752;48.870;9.082;2022-11-13T08:38:51;98792.72;;;3.32;96.91
76054;BME280;64752;48.870;9.082;2022-11-13T08:41:16;98792.78;;;3.45;96.29
76054;BME280;64752;48.870;9.082;2022-11-13T08:43:42;98778.28;;;3.49;96.20
76054;BME280;64752;48.870;9.082;2022-11-13T08:46:07;98778.97;;;3.20;95.50
76054;BME280;64752;48.870;9.082;2022-11-13T08:48:33;98773.31;;;3.75;96.11
76054;BME280;64752;48.870;9.082;2022-11-13T08:50:58;98772.59;;;4.10;96.28
76054;BME280;64752;48.870;9.082;2022-11-13T08:53:24;98773.25;;;3.63;94.90
76054;BME280;64752;48.870;9.082;2022-11-13T08:55:50;98768.31;;;4.04;95.41
76054;BME280;64752;48.870;9.082;2022-11-13T08:58:15;98773.34;;;3.88;95.00
76054;BME280;64752;48.870;9.082;2022-11-13T09:00:41;98776.78;;;3.91;95.24
76054;BME280;64752;48.870;9.082;2022-11-13T09:03:08;98776.69;;;3.71;94.00
76054;BME280;64752;48.870;9.082;2022-11-13T09:05:35;98773.31;;;3.78;94.70
76054;BME280;64752;48.870;9.082;2022-11-13T09:08:01;98770.75;;;3.78;94.62
76054;BME280;64752;48.870;9.082;2022-11-13T09:10:27;98770.72;;;3.71;94.01
76054;BME280;64752;48.870;9.082;2022-11-13T09:13:00;98764.91;;;4.09;95.39
76054;BME280;64752;48.870;9.082;2022-11-13T09:15:27;98757.13;;;3.90;93.51
76054;BME280;64752;48.870;9.082;2022-11-13T09:17:57;98768.41;;;4.43;94.78
76054;BME280;64752;48.870;9.082;2022-11-13T09:20:23;98763.28;;;4.75;94.22
76054;BME280;64752;48.870;9.082;2022-11-13T09:22:55;98757.31;;;4.89;94.26
76054;BME280;64752;48.870;9.082;2022-11-13T09:25:21;98759.88;;;4.95;93.26
76054;BME280;64752;48.870;9.082;2022-11-13T09:27:54;98763.22;;;5.54;94.32
76054;BME280;64752;48.870;9.082;2022-11-13T09:30:20;98758.16;;;4.86;91.13
76054;BME280;64752;48.870;9.082;2022-11-13T09:32:45;98766.72;;;4.45;92.58
76054;BME280;64752;48.870;9.082;2022-11-13T09:35:10;98767.56;;;5.22;93.84
76054;BME280;64752;48.870;9.082;2022-11-13T09:37:36;98758.97;;;5.39;91.99
76054;BME280;64752;48.870;9.082;2022-11-13T09:40:01;98759.03;;;5.10;90.77
76054;BME280;64752;48.870;9.082;2022-11-13T09:42:28;98757.31;;;4.99;89.13
76054;BME280;64752;48.870;9.082;2022-11-13T09:45:01;98749.50;;;5.47;91.57
76054;BME280;64752;48.870;9.082;2022-11-13T09:47:37;98753.00;;;5.20;88.12
76054;BME280;64752;48.870;9.082;2022-11-13T09:50:26;98750.34;;;5.49;89.30
76054;BME280;64752;48.870;9.082;2022-11-13T09:52:53;98763.31;;;5.06;90.41
76054;BME280;64752;48.870;9.082;2022-11-13T09:55:24;98750.44;;;4.81;90.01
76054;BME280;64752;48.870;9.082;2022-11-13T10:00:28;98736.56;;;5.81;88.35
76054;BME280;64752;48.870;9.082;2022-11-13T10:03:24;98739.91;;;6.00;87.21
76054;BME280;64752;48.870;9.082;2022-11-13T10:06:17;98734.72;;;6.12;85.98
76054;BME280;64752;48.870;9.082;2022-11-13T10:08:56;98730.81;;;6.81;82.99
76054;BME280;64752;48.870;9.082;2022-11-13T10:11:37;98737.09;;;7.42;83.94
76054;BME280;64752;48.870;9.082;2022-11-13T10:14:24;98746.59;;;7.42;85.34
76054;BME280;64752;48.870;9.082;2022-11-13T10:16:58;98731.53;;;6.99;80.34
76054;BME280;64752;48.870;9.082;2022-11-13T10:24:40;98726.28;;;9.06;76.75
76054;BME280;64752;48.870;9.082;2022-11-13T10:27:11;98725.91;;;9.72;77.28
76054;BME280;64752;48.870;9.082;2022-11-13T10:29:37;98725.19;;;9.65;73.18
76054;BME280;64752;48.870;9.082;2022-11-13T10:32:30;98714.19;;;9.07;74.24
76054;BME280;64752;48.870;9.082;2022-11-13T10:37:39;98710.47;;;9.22;73.38
76054;BME280;64752;48.870;9.082;2022-11-13T10:40:07;98716.38;;;9.74;70.74
76054;BME280;64752;48.870;9.082;2022-11-13T10:42:37;98699.22;;;10.09;69.78
76054;BME280;64752;48.870;9.082;2022-11-13T10:45:04;98708.06;;;10.40;67.80
76054;BME280;64752;48.870;9.082;2022-11-13T10:47:32;98701.97;;;11.45;64.59
76054;BME280;64752;48.870;9.082;2022-11-13T10:50:13;98684.09;;;9.89;68.71
76054;BME280;64752;48.870;9.082;2022-11-13T10:52:45;98676.63;;;12.69;62.64
76054;BME280;64752;48.870;9.082;2022-11-13T10:58:00;98673.69;;;15.51;52.40
76054;BME280;64752;48.870;9.082;2022-11-13T11:00:30;98671.66;;;13.63;57.90
76054;BME280;64752;48.870;9.082;2022-11-13T11:02:55;98664.22;;;14.00;55.31
76054;BME280;64752;48.870;9.082;2022-11-13T11:05:23;98656.34;;;13.54;55.50
76054;BME280;64752;48.870;9.082;2022-11-13T11:07:50;98654.16;;;14.35;55.20
76054;BME280;64752;48.870;9.082;2022-11-13T11:13:09;98633.88;;;16.93;48.99
76054;BME280;64752;48.870;9.082;2022-11-13T11:15:45;98626.16;;;16.18;49.95
76054;BME280;64752;48.870;9.082;2022-11-13T11:18:25;98627.84;;;16.56;49.46
76054;BME280;64752;48.870;9.082;2022-11-13T11:20:55;98612.56;;;17.50;47.22
76054;BME280;64752;48.870;9.082;2022-11-13T11:23:47;98600.13;;;18.17;44.75
76054;BME280;64752;48.870;9.082;2022-11-13T11:26:20;98598.47;;;15.76;48.73
76054;BME280;64752;48.870;9.082;2022-11-13T11:31:37;98591.56;;;16.83;47.18
76054;BME280;64752;48.870;9.082;2022-11-13T11:34:21;98588.03;;;17.18;47.14
76054;BME280;64752;48.870;9.082;2022-11-13T11:37:04;98583.03;;;17.78;45.77
76054;BME280;64752;48.870;9.082;2022-11-13T11:39:37;98580.59;;;15.29;49.86
76054;BME280;64752;48.870;9.082;2022-11-13T11:42:17;98570.19;;;19.39;42.48
76054;BME280;64752;48.870;9.082;2022-11-13T11:44:59;98570.66;;;16.47;46.88
76054;BME280;64752;48.870;9.082;2022-11-13T11:47:26;98560.88;;;18.46;43.74
76054;BME280;64752;48.870;9.082;2022-11-13T11:49:53;98564.00;;;17.59;45.05
76054;BME280;64752;48.870;9.082;2022-11-13T11:52:34;98557.00;;;17.10;47.79
76054;BME280;64752;48.870;9.082;2022-11-13T11:55:18;98555.50;;;19.50;40.67
76054;BME280;64752;48.870;9.082;2022-11-13T12:00:48;98529.47;;;18.28;44.49
76054;BME280;64752;48.870;9.082;2022-11-13T12:03:32;98518.63;;;17.09;46.98
76054;BME280;64752;48.870;9.082;2022-11-13T12:06:15;98531.31;;;18.87;42.76
76054;BME280;64752;48.870;9.082;2022-11-13T12:09:07;98514.97;;;19.67;40.38
76054;BME280;64752;48.870;9.082;2022-11-13T12:11:38;98513.03;;;18.10;43.98
76054;BME280;64752;48.870;9.082;2022-11-13T12:25:37;98493.84;;;20.35;39.53
76054;BME280;64752;48.870;9.082;2022-11-13T12:28:38;98487.63;;;18.56;42.18
76054;BME280;64752;48.870;9.082;2022-11-13T12:33:57;98478.19;;;20.07;38.58
76054;BME280;64752;48.870;9.082;2022-11-13T12:36:26;98473.69;;;20.21;38.78
76054;BME280;64752;48.870;9.082;2022-11-13T12:41:52;98455.84;;;18.60;43.33
76054;BME280;64752;48.870;9.082;2022-11-13T12:44:28;98460.69;;;19.10;41.16
76054;BME280;64752;48.870;9.082;2022-11-13T12:46:56;98455.84;;;17.69;44.56
76054;BME280;64752;48.870;9.082;2022-11-13T12:51:54;98434.38;;;18.97;41.94
76054;BME280;64752;48.870;9.082;2022-11-13T12:54:30;98425.22;;;17.08;47.21
76054;BME280;64752;48.870;9.082;2022-11-13T12:57:23;98433.06;;;18.90;43.75
76054;BME280;64752;48.870;9.082;2022-11-13T12:59:54;98418.94;;;16.94;47.52
76054;BME280;64752;48.870;9.082;2022-11-13T13:04:58;98426.91;;;16.75;47.80
76054;BME280;64752;48.870;9.082;2022-11-13T13:15:58;98405.34;;;17.66;45.88
76054;BME280;64752;48.870;9.082;2022-11-13T13:18:28;98412.00;;;17.57;46.66
76054;BME280;64752;48.870;9.082;2022-11-13T13:23:33;98403.47;;;16.90;48.47
76054;BME280;64752;48.870;9.082;2022-11-13T13:26:20;98395.53;;;17.39;48.24
76054;BME280;64752;48.870;9.082;2022-11-13T13:28:50;98391.19;;;18.29;46.29
76054;BME280;64752;48.870;9.082;2022-11-13T13:31:25;98387.19;;;16.18;50.38
76054;BME280;64752;48.870;9.082;2022-11-13T13:34:18;98384.38;;;17.20;47.92
76054;BME280;64752;48.870;9.082;2022-11-13T13:47:34;98368.22;;;16.64;50.65
76054;BME280;64752;48.870;9.082;2022-11-13T13:50:04;98361.78;;;16.20;52.17
76054;BME280;64752;48.870;9.082;2022-11-13T13:52:32;98361.25;;;16.63;51.56
76054;BME280;64752;48.870;9.082;2022-11-13T13:55:00;98359.91;;;16.55;51.40
76054;BME280;64752;48.870;9.082;2022-11-13T13:57:26;98352.44;;;15.27;54.16
76054;BME280;64752;48.870;9.082;2022-11-13T13:59:52;98353.13;;;16.02;53.14
76054;BME280;64752;48.870;9.082;2022-11-13T14:02:22;98347.31;;;16.30;51.64
76054;BME280;64752;48.870;9.082;2022-11-13T14:04:50;98345.38;;;16.82;50.80
76054;BME280;64752;48.870;9.082;2022-11-13T14:09:44;98354.47;;;16.09;52.35
76054;BME280;64752;48.870;9.082;2022-11-13T14:12:19;98352.66;;;15.76;53.32
76054;BME280;64752;48.870;9.082;2022-11-13T14:14:46;98342.00;;;16.14;51.56
76054;BME280;64752;48.870;9.082;2022-11-13T14:17:11;98345.94;;;16.06;52.30
76054;BME280;64752;48.870;9.082;2022-11-13T14:19:52;98333.97;;;16.51;51.40
76054;BME280;64752;48.870;9.082;2022-11-13T14:22:18;98335.78;;;14.17;57.35
76054;BME280;64752;48.870;9.082;2022-11-13T14:24:49;98343.53;;;13.98;57.76
76054;BME280;64752;48.870;9.082;2022-11-13T14:27:24;98328.63;;;14.02;58.05
76054;BME280;64752;48.870;9.082;2022-11-13T14:30:01;98330.25;;;14.82;56.25
76054;BME280;64752;48.870;9.082;2022-11-13T14:32:29;98332.19;;;14.96;55.80